sensor_id;sensor_type;location;lat;lon;timestamp;P1;durP1;ratioP1;P2;durP2;ratioP2
55603;SDS011;41468;48.838;9.330;2023-10-13T00:01:58;7.93;;;3.83;;
55603;SDS011;41468;48.838;9.330;2023-10-13T00:04:28;17.23;;;5.75;;
55603;SDS011;41468;48.838;9.330;2023-10-13T00:06:55;7.50;;;3.90;;
55603;SDS011;41468;48.838;9.330;2023-10-13T00:09:28;8.77;;;4.10;;
55603;SDS011;41468;48.838;9.330;2023-10-13T00:11:59;7.53;;;4.10;;
55603;SDS011;41468;48.838;9.330;2023-10-13T00:14:26;8.55;;;4.30;;
55603;SDS011;41468;48.838;9.330;2023-10-13T00:17:04;8.82;;;5.07;;
55603;SDS011;41468;48.838;9.330;2023-10-13T00:19:35;12.00;;;4.53;;
55603;SDS011;41468;48.838;9.330;2023-10-13T00:22:13;9.10;;;4.38;;
55603;SDS011;41468;48.838;9.330;2023-10-13T00:24:46;4.75;;;3.78;;
55603;SDS011;41468;48.838;9.330;2023-10-13T00:27:14;10.13;;;4.20;;
55603;SDS011;41468;48.838;9.330;2023-10-13T00:29:57;9.63;;;3.75;;
55603;SDS011;41468;48.838;9.330;2023-10-13T00:32:48;7.65;;;3.80;;
55603;SDS011;41468;48.838;9.330;2023-10-13T00:35:23;10.55;;;3.58;;
55603;SDS011;41468;48.838;9.330;2023-10-13T00:38:03;5.85;;;3.80;;
55603;SDS011;41468;48.838;9.330;2023-10-13T00:40:39;3.78;;;3.47;;
55603;SDS011;41468;48.838;9.330;2023-10-13T00:43:07;5.85;;;3.50;;
55603;SDS011;41468;48.838;9.330;2023-10-13T00:45:53;8.05;;;3.78;;
55603;SDS011;41468;48.838;9.330;2023-10-13T00:48:25;6.15;;;3.85;;
55603;SDS011;41468;48.838;9.330;2023-10-13T00:51:01;6.65;;;3.60;;
55603;SDS011;41468;48.838;9.330;2023-10-13T00:53:29;7.32;;;3.70;;
55603;SDS011;41468;48.838;9.330;2023-10-13T00:56:00;4.75;;;3.40;;
55603;SDS011;41468;48.838;9.330;2023-10-13T00:58:34;6.57;;;3.53;;
55603;SDS011;41468;48.838;9.330;2023-10-13T01:01:01;9.82;;;3.67;;
55603;SDS011;41468;48.838;9.330;2023-10-13T01:03:49;5.45;;;3.40;;
55603;SDS011;41468;48.838;9.330;2023-10-13T01:06:22;7.03;;;3.70;;
55603;SDS011;41468;48.838;9.330;2023-10-13T01:09:01;6.38;;;3.30;;
55603;SDS011;41468;48.838;9.330;2023-10-13T01:11:39;7.47;;;3.40;;
55603;SDS011;41468;48.838;9.330;2023-10-13T01:14:10;4.07;;;3.22;;
55603;SDS011;41468;48.838;9.330;2023-10-13T01:16:45;6.60;;;2.97;;
55603;SDS011;41468;48.838;9.330;2023-10-13T01:19:13;6.20;;;3.50;;
55603;SDS011;41468;48.838;9.330;2023-10-13T01:21:43;5.63;;;3.00;;
55603;SDS011;41468;48.838;9.330;2023-10-13T01:24:11;6.18;;;3.67;;
55603;SDS011;41468;48.838;9.330;2023-10-13T01:26:39;4.47;;;3.40;;
55603;SDS011;41468;48.838;9.330;2023-10-13T01:29:09;3.55;;;3.20;;
55603;SDS011;41468;48.838;9.330;2023-10-13T01:31:42;6.40;;;3.65;;
55603;SDS011;41468;48.838;9.330;2023-10-13T01:34:14;4.07;;;3.30;;
55603;SDS011;41468;48.838;9.330;2023-10-13T01:36:49;4.82;;;3.15;;
55603;SDS011;41468;48.838;9.330;2023-10-13T01:39:22;5.00;;;3.30;;
55603;SDS011;41468;48.838;9.330;2023-10-13T01:41:55;8.73;;;3.60;;
55603;SDS011;41468;48.838;9.330;2023-10-13T01:44:26;3.50;;;3.08;;
55603;SDS011;41468;48.838;9.330;2023-10-13T01:46:56;7.47;;;3.40;;
55603;SDS011;41468;48.838;9.330;2023-10-13T01:49:30;3.80;;;3.30;;
55603;SDS011;41468;48.838;9.330;2023-10-13T01:51:56;9.35;;;3.35;;
55603;SDS011;41468;48.838;9.330;2023-10-13T01:54:29;6.82;;;3.08;;
55603;SDS011;41468;48.838;9.330;2023-10-13T01:56:56;9.55;;;3.78;;
55603;SDS011;41468;48.838;9.330;2023-10-13T01:59:23;7.05;;;3.35;;
55603;SDS011;41468;48.838;9.330;2023-10-13T02:01:50;9.45;;;3.13;;
55603;SDS011;41468;48.838;9.330;2023-10-13T02:04:18;7.97;;;4.03;;
55603;SDS011;41468;48.838;9.330;2023-10-13T02:06:48;3.63;;;3.30;;
55603;SDS011;41468;48.838;9.330;2023-10-13T02:09:14;8.55;;;3.30;;
55603;SDS011;41468;48.838;9.330;2023-10-13T02:11:56;5.72;;;3.08;;
55603;SDS011;41468;48.838;9.330;2023-10-13T02:14:23;6.68;;;3.03;;
55603;SDS011;41468;48.838;9.330;2023-10-13T02:16:52;4.72;;;3.10;;
55603;SDS011;41468;48.838;9.330;2023-10-13T02:19:38;8.15;;;3.60;;
55603;SDS011;41468;48.838;9.330;2023-10-13T02:22:10;8.88;;;3.50;;
55603;SDS011;41468;48.838;9.330;2023-10-13T02:24:38;9.05;;;3.33;;
55603;SDS011;41468;48.838;9.330;2023-10-13T02:27:07;5.32;;;3.72;;
55603;SDS011;41468;48.838;9.330;2023-10-13T02:29:40;5.93;;;3.47;;
55603;SDS011;41468;48.838;9.330;2023-10-13T02:32:07;7.25;;;3.03;;
55603;SDS011;41468;48.838;9.330;2023-10-13T02:34:45;8.15;;;3.17;;
55603;SDS011;41468;48.838;9.330;2023-10-13T02:37:12;7.28;;;3.30;;
55603;SDS011;41468;48.838;9.330;2023-10-13T02:39:40;6.10;;;3.13;;
55603;SDS011;41468;48.838;9.330;2023-10-13T02:42:12;3.05;;;2.83;;
55603;SDS011;41468;48.838;9.330;2023-10-13T02:44:51;6.30;;;3.42;;
55603;SDS011;41468;48.838;9.330;2023-10-13T02:47:19;4.72;;;3.55;;
55603;SDS011;41468;48.838;9.330;2023-10-13T02:50:01;9.07;;;3.30;;
55603;SDS011;41468;48.838;9.330;2023-10-13T02:52:28;7.50;;;3.35;;
55603;SDS011;41468;48.838;9.330;2023-10-13T02:55:00;8.27;;;3.58;;
55603;SDS011;41468;48.838;9.330;2023-10-13T02:57:27;6.78;;;3.45;;
55603;SDS011;41468;48.838;9.330;2023-10-13T02:59:54;5.13;;;3.20;;
55603;SDS011;41468;48.838;9.330;2023-10-13T03:02:38;6.28;;;3.47;;
55603;SDS011;41468;48.838;9.330;2023-10-13T03:05:11;5.85;;;3.10;;
55603;SDS011;41468;48.838;9.330;2023-10-13T03:07:40;6.32;;;3.28;;
55603;SDS011;41468;48.838;9.330;2023-10-13T03:10:10;7.38;;;3.17;;
55603;SDS011;41468;48.838;9.330;2023-10-13T03:12:40;5.32;;;3.40;;
55603;SDS011;41468;48.838;9.330;2023-10-13T03:15:07;4.43;;;3.03;;
55603;SDS011;41468;48.838;9.330;2023-10-13T03:17:46;5.03;;;3.13;;
55603;SDS011;41468;48.838;9.330;2023-10-13T03:20:14;10.18;;;3.38;;
55603;SDS011;41468;48.838;9.330;2023-10-13T03:22:42;6.13;;;3.28;;
55603;SDS011;41468;48.838;9.330;2023-10-13T03:25:13;7.18;;;2.60;;
55603;SDS011;41468;48.838;9.330;2023-10-13T03:27:51;4.20;;;3.08;;
55603;SDS011;41468;48.838;9.330;2023-10-13T03:30:18;6.22;;;3.28;;
55603;SDS011;41468;48.838;9.330;2023-10-13T03:32:47;9.15;;;3.15;;
55603;SDS011;41468;48.838;9.330;2023-10-13T03:35:15;6.95;;;3.63;;
55603;SDS011;41468;48.838;9.330;2023-10-13T03:37:51;5.68;;;3.53;;
55603;SDS011;41468;48.838;9.330;2023-10-13T03:40:18;4.78;;;3.08;;
55603;SDS011;41468;48.838;9.330;2023-10-13T03:42:49;5.88;;;3.20;;
55603;SDS011;41468;48.838;9.330;2023-10-13T03:45:35;6.07;;;3.25;;
55603;SDS011;41468;48.838;9.330;2023-10-13T03:48:12;5.97;;;3.17;;
55603;SDS011;41468;48.838;9.330;2023-10-13T03:50:56;6.95;;;3.33;;
55603;SDS011;41468;48.838;9.330;2023-10-13T03:53:33;5.72;;;3.10;;
55603;SDS011;41468;48.838;9.330;2023-10-13T03:56:07;4.03;;;3.08;;
55603;SDS011;41468;48.838;9.330;2023-10-13T03:58:57;6.20;;;3.13;;
55603;SDS011;41468;48.838;9.330;2023-10-13T04:01:52;6.45;;;3.22;;
55603;SDS011;41468;48.838;9.330;2023-10-13T04:04:19;5.18;;;3.20;;
55603;SDS011;41468;48.838;9.330;2023-10-13T04:07:09;4.03;;;3.28;;
55603;SDS011;41468;48.838;9.330;2023-10-13T04:09:36;6.55;;;3.10;;
55603;SDS011;41468;48.838;9.330;2023-10-13T04:12:36;5.82;;;3.25;;
55603;SDS011;41468;48.838;9.330;2023-10-13T04:15:32;7.60;;;3.38;;
55603;SDS011;41468;48.838;9.330;2023-10-13T04:18:25;5.93;;;3.33;;
55603;SDS011;41468;48.838;9.330;2023-10-13T04:21:13;4.28;;;3.22;;
55603;SDS011;41468;48.838;9.330;2023-10-13T04:24:06;8.02;;;3.40;;
55603;SDS011;41468;48.838;9.330;2023-10-13T04:26:52;8.70;;;3.17;;
55603;SDS011;41468;48.838;9.330;2023-10-13T04:29:38;6.63;;;3.10;;
55603;SDS011;41468;48.838;9.330;2023-10-13T04:32:23;9.80;;;3.58;;
55603;SDS011;41468;48.838;9.330;2023-10-13T04:34:59;5.57;;;3.40;;
55603;SDS011;41468;48.838;9.330;2023-10-13T04:37:39;8.95;;;3.13;;
55603;SDS011;41468;48.838;9.330;2023-10-13T04:40:25;5.85;;;3.10;;
55603;SDS011;41468;48.838;9.330;2023-10-13T04:42:52;5.70;;;3.25;;
55603;SDS011;41468;48.838;9.330;2023-10-13T04:45:24;5.90;;;3.17;;
55603;SDS011;41468;48.838;9.330;2023-10-13T04:47:58;6.28;;;3.28;;
55603;SDS011;41468;48.838;9.330;2023-10-13T04:51:07;5.30;;;3.20;;
55603;SDS011;41468;48.838;9.330;2023-10-13T04:53:52;5.95;;;3.33;;
55603;SDS011;41468;48.838;9.330;2023-10-13T04:56:52;8.77;;;3.75;;
55603;SDS011;41468;48.838;9.330;2023-10-13T04:59:37;6.50;;;3.78;;
55603;SDS011;41468;48.838;9.330;2023-10-13T05:02:30;4.93;;;3.00;;
55603;SDS011;41468;48.838;9.330;2023-10-13T05:05:12;5.82;;;3.53;;
55603;SDS011;41468;48.838;9.330;2023-10-13T05:07:40;4.35;;;3.10;;
55603;SDS011;41468;48.838;9.330;2023-10-13T05:10:26;4.53;;;3.20;;
55603;SDS011;41468;48.838;9.330;2023-10-13T05:13:12;6.10;;;3.80;;
55603;SDS011;41468;48.838;9.330;2023-10-13T05:16:03;6.22;;;3.40;;
55603;SDS011;41468;48.838;9.330;2023-10-13T05:18:49;5.30;;;3.15;;
55603;SDS011;41468;48.838;9.330;2023-10-13T05:21:34;8.20;;;3.60;;
55603;SDS011;41468;48.838;9.330;2023-10-13T05:24:22;7.53;;;3.75;;
55603;SDS011;41468;48.838;9.330;2023-10-13T05:27:08;7.30;;;3.33;;
55603;SDS011;41468;48.838;9.330;2023-10-13T05:29:53;10.85;;;3.42;;
55603;SDS011;41468;48.838;9.330;2023-10-13T05:32:39;6.35;;;3.65;;
55603;SDS011;41468;48.838;9.330;2023-10-13T05:35:25;4.72;;;3.25;;
55603;SDS011;41468;48.838;9.330;2023-10-13T05:38:11;6.07;;;3.67;;
55603;SDS011;41468;48.838;9.330;2023-10-13T05:41:00;7.35;;;3.42;;
55603;SDS011;41468;48.838;9.330;2023-10-13T05:43:50;12.25;;;3.92;;
55603;SDS011;41468;48.838;9.330;2023-10-13T05:46:36;5.75;;;3.53;;
55603;SDS011;41468;48.838;9.330;2023-10-13T05:49:06;3.53;;;3.20;;
55603;SDS011;41468;48.838;9.330;2023-10-13T05:51:44;6.45;;;3.78;;
55603;SDS011;41468;48.838;9.330;2023-10-13T05:54:24;4.22;;;3.50;;
55603;SDS011;41468;48.838;9.330;2023-10-13T05:57:09;6.20;;;3.53;;
55603;SDS011;41468;48.838;9.330;2023-10-13T05:59:55;5.45;;;3.17;;
55603;SDS011;41468;48.838;9.330;2023-10-13T06:02:40;5.25;;;3.40;;
55603;SDS011;41468;48.838;9.330;2023-10-13T06:05:25;7.53;;;3.30;;
55603;SDS011;41468;48.838;9.330;2023-10-13T06:08:11;7.78;;;3.83;;
55603;SDS011;41468;48.838;9.330;2023-10-13T06:11:02;6.43;;;3.30;;
55603;SDS011;41468;48.838;9.330;2023-10-13T06:13:48;5.00;;;3.20;;
55603;SDS011;41468;48.838;9.330;2023-10-13T06:16:33;4.97;;;3.75;;
55603;SDS011;41468;48.838;9.330;2023-10-13T06:19:19;5.95;;;3.20;;
55603;SDS011;41468;48.838;9.330;2023-10-13T06:22:04;10.30;;;3.45;;
55603;SDS011;41468;48.838;9.330;2023-10-13T06:24:50;7.57;;;3.70;;
55603;SDS011;41468;48.838;9.330;2023-10-13T06:27:35;4.35;;;3.50;;
55603;SDS011;41468;48.838;9.330;2023-10-13T06:30:20;8.95;;;3.53;;
55603;SDS011;41468;48.838;9.330;2023-10-13T06:32:47;8.25;;;3.03;;
55603;SDS011;41468;48.838;9.330;2023-10-13T06:35:16;14.02;;;3.47;;
55603;SDS011;41468;48.838;9.330;2023-10-13T06:37:53;9.98;;;3.65;;
55603;SDS011;41468;48.838;9.330;2023-10-13T06:40:20;6.78;;;3.65;;
55603;SDS011;41468;48.838;9.330;2023-10-13T06:43:03;10.95;;;3.80;;
55603;SDS011;41468;48.838;9.330;2023-10-13T06:45:47;7.22;;;3.75;;
55603;SDS011;41468;48.838;9.330;2023-10-13T06:48:27;6.95;;;4.35;;
55603;SDS011;41468;48.838;9.330;2023-10-13T06:50:59;10.90;;;4.18;;
55603;SDS011;41468;48.838;9.330;2023-10-13T06:53:36;9.35;;;4.45;;
55603;SDS011;41468;48.838;9.330;2023-10-13T06:56:06;8.18;;;3.67;;
55603;SDS011;41468;48.838;9.330;2023-10-13T06:58:33;8.35;;;3.55;;
55603;SDS011;41468;48.838;9.330;2023-10-13T07:01:00;6.05;;;4.10;;
55603;SDS011;41468;48.838;9.330;2023-10-13T07:03:34;8.20;;;4.18;;
55603;SDS011;41468;48.838;9.330;2023-10-13T07:06:05;7.55;;;3.72;;
55603;SDS011;41468;48.838;9.330;2023-10-13T07:08:42;6.40;;;3.28;;
55603;SDS011;41468;48.838;9.330;2023-10-13T07:11:24;5.82;;;3.65;;
55603;SDS011;41468;48.838;9.330;2023-10-13T07:14:03;6.60;;;3.72;;
55603;SDS011;41468;48.838;9.330;2023-10-13T07:16:42;12.40;;;3.75;;
55603;SDS011;41468;48.838;9.330;2023-10-13T07:19:13;8.88;;;3.30;;
55603;SDS011;41468;48.838;9.330;2023-10-13T07:21:47;8.93;;;3.42;;
55603;SDS011;41468;48.838;9.330;2023-10-13T07:24:14;9.30;;;3.60;;
55603;SDS011;41468;48.838;9.330;2023-10-13T07:26:42;3.85;;;3.22;;
55603;SDS011;41468;48.838;9.330;2023-10-13T07:29:10;10.88;;;3.80;;
55603;SDS011;41468;48.838;9.330;2023-10-13T07:31:37;9.10;;;3.63;;
55603;SDS011;41468;48.838;9.330;2023-10-13T07:34:06;6.28;;;3.70;;
55603;SDS011;41468;48.838;9.330;2023-10-13T07:36:39;11.98;;;3.60;;
55603;SDS011;41468;48.838;9.330;2023-10-13T07:39:09;5.18;;;3.30;;
55603;SDS011;41468;48.838;9.330;2023-10-13T07:41:56;7.78;;;3.92;;
55603;SDS011;41468;48.838;9.330;2023-10-13T07:44:32;5.07;;;3.30;;
55603;SDS011;41468;48.838;9.330;2023-10-13T07:47:03;6.47;;;3.47;;
55603;SDS011;41468;48.838;9.330;2023-10-13T07:49:37;8.82;;;3.20;;
55603;SDS011;41468;48.838;9.330;2023-10-13T07:52:07;4.55;;;3.17;;
55603;SDS011;41468;48.838;9.330;2023-10-13T07:54:54;8.98;;;3.08;;
55603;SDS011;41468;48.838;9.330;2023-10-13T07:57:51;7.95;;;3.20;;
55603;SDS011;41468;48.838;9.330;2023-10-13T08:00:22;6.93;;;3.47;;
55603;SDS011;41468;48.838;9.330;2023-10-13T08:02:58;10.45;;;3.40;;
55603;SDS011;41468;48.838;9.330;2023-10-13T08:05:45;10.02;;;2.80;;
55603;SDS011;41468;48.838;9.330;2023-10-13T08:08:30;5.38;;;3.10;;
55603;SDS011;41468;48.838;9.330;2023-10-13T08:11:08;5.47;;;2.85;;
55603;SDS011;41468;48.838;9.330;2023-10-13T08:13:54;5.78;;;2.97;;
55603;SDS011;41468;48.838;9.330;2023-10-13T08:16:38;6.38;;;2.92;;
55603;SDS011;41468;48.838;9.330;2023-10-13T08:19:13;7.60;;;3.25;;
55603;SDS011;41468;48.838;9.330;2023-10-13T08:21:45;7.65;;;3.53;;
55603;SDS011;41468;48.838;9.330;2023-10-13T08:24:18;4.43;;;3.13;;
55603;SDS011;41468;48.838;9.330;2023-10-13T08:26:53;5.15;;;3.20;;
55603;SDS011;41468;48.838;9.330;2023-10-13T08:29:38;6.25;;;3.30;;
55603;SDS011;41468;48.838;9.330;2023-10-13T08:32:23;5.13;;;3.00;;
55603;SDS011;41468;48.838;9.330;2023-10-13T08:35:00;8.02;;;2.92;;
55603;SDS011;41468;48.838;9.330;2023-10-13T08:37:36;5.75;;;3.28;;
55603;SDS011;41468;48.838;9.330;2023-10-13T08:40:18;9.18;;;3.30;;
55603;SDS011;41468;48.838;9.330;2023-10-13T08:43:10;8.63;;;3.13;;
55603;SDS011;41468;48.838;9.330;2023-10-13T08:45:39;6.07;;;3.10;;
55603;SDS011;41468;48.838;9.330;2023-10-13T08:48:07;7.38;;;3.80;;
55603;SDS011;41468;48.838;9.330;2023-10-13T08:50:43;9.23;;;3.28;;
55603;SDS011;41468;48.838;9.330;2023-10-13T08:53:15;9.57;;;3.78;;
55603;SDS011;41468;48.838;9.330;2023-10-13T08:55:58;6.63;;;2.85;;
55603;SDS011;41468;48.838;9.330;2023-10-13T08:58:42;8.30;;;3.35;;
55603;SDS011;41468;48.838;9.330;2023-10-13T09:01:29;5.13;;;3.03;;
55603;SDS011;41468;48.838;9.330;2023-10-13T09:04:01;10.10;;;3.28;;
55603;SDS011;41468;48.838;9.330;2023-10-13T09:06:57;4.47;;;3.35;;
55603;SDS011;41468;48.838;9.330;2023-10-13T09:09:46;5.13;;;3.42;;
55603;SDS011;41468;48.838;9.330;2023-10-13T09:12:23;8.50;;;3.33;;
55603;SDS011;41468;48.838;9.330;2023-10-13T09:15:01;7.97;;;3.45;;
55603;SDS011;41468;48.838;9.330;2023-10-13T09:17:47;6.53;;;3.17;;
55603;SDS011;41468;48.838;9.330;2023-10-13T09:20:28;6.82;;;3.05;;
55603;SDS011;41468;48.838;9.330;2023-10-13T09:23:18;6.78;;;3.05;;
55603;SDS011;41468;48.838;9.330;2023-10-13T09:26:06;8.60;;;2.92;;
55603;SDS011;41468;48.838;9.330;2023-10-13T09:28:36;4.78;;;2.88;;
55603;SDS011;41468;48.838;9.330;2023-10-13T09:31:03;7.55;;;2.85;;
55603;SDS011;41468;48.838;9.330;2023-10-13T09:33:36;6.40;;;2.80;;
55603;SDS011;41468;48.838;9.330;2023-10-13T09:36:03;4.32;;;2.72;;
55603;SDS011;41468;48.838;9.330;2023-10-13T09:38:35;5.68;;;2.80;;
55603;SDS011;41468;48.838;9.330;2023-10-13T09:41:27;5.05;;;2.60;;
55603;SDS011;41468;48.838;9.330;2023-10-13T09:43:59;9.25;;;3.20;;
55603;SDS011;41468;48.838;9.330;2023-10-13T09:46:26;9.48;;;3.38;;
55603;SDS011;41468;48.838;9.330;2023-10-13T09:49:13;8.18;;;3.13;;
55603;SDS011;41468;48.838;9.330;2023-10-13T09:52:03;4.07;;;2.55;;
55603;SDS011;41468;48.838;9.330;2023-10-13T09:54:38;4.20;;;2.88;;
55603;SDS011;41468;48.838;9.330;2023-10-13T09:57:14;5.60;;;2.70;;
55603;SDS011;41468;48.838;9.330;2023-10-13T09:59:46;5.07;;;2.60;;
55603;SDS011;41468;48.838;9.330;2023-10-13T10:02:19;11.27;;;3.05;;
55603;SDS011;41468;48.838;9.330;2023-10-13T10:04:53;3.10;;;2.72;;
55603;SDS011;41468;48.838;9.330;2023-10-13T10:07:25;6.40;;;3.03;;
55603;SDS011;41468;48.838;9.330;2023-10-13T10:10:00;6.78;;;3.10;;
55603;SDS011;41468;48.838;9.330;2023-10-13T10:15:29;6.93;;;3.08;;
55603;SDS011;41468;48.838;9.330;2023-10-13T10:18:01;11.13;;;3.50;;
55603;SDS011;41468;48.838;9.330;2023-10-13T10:20:30;7.25;;;2.80;;
55603;SDS011;41468;48.838;9.330;2023-10-13T10:23:27;12.98;;;3.22;;
55603;SDS011;41468;48.838;9.330;2023-10-13T10:26:09;7.35;;;2.70;;
55603;SDS011;41468;48.838;9.330;2023-10-13T10:28:43;6.40;;;2.97;;
55603;SDS011;41468;48.838;9.330;2023-10-13T10:31:10;7.10;;;3.00;;
55603;SDS011;41468;48.838;9.330;2023-10-13T10:33:43;7.85;;;2.70;;
55603;SDS011;41468;48.838;9.330;2023-10-13T10:36:17;4.38;;;2.88;;
55603;SDS011;41468;48.838;9.330;2023-10-13T10:38:54;7.90;;;2.80;;
55603;SDS011;41468;48.838;9.330;2023-10-13T10:41:31;5.88;;;3.08;;
55603;SDS011;41468;48.838;9.330;2023-10-13T10:44:18;8.23;;;3.13;;
55603;SDS011;41468;48.838;9.330;2023-10-13T10:47:09;4.95;;;2.70;;
55603;SDS011;41468;48.838;9.330;2023-10-13T10:49:57;5.70;;;2.85;;
55603;SDS011;41468;48.838;9.330;2023-10-13T10:52:26;7.03;;;2.78;;
55603;SDS011;41468;48.838;9.330;2023-10-13T10:54:58;5.00;;;2.50;;
55603;SDS011;41468;48.838;9.330;2023-10-13T10:57:26;8.35;;;2.80;;
55603;SDS011;41468;48.838;9.330;2023-10-13T10:59:59;4.28;;;2.72;;
55603;SDS011;41468;48.838;9.330;2023-10-13T11:02:41;5.65;;;2.90;;
55603;SDS011;41468;48.838;9.330;2023-10-13T11:05:07;9.57;;;2.83;;
55603;SDS011;41468;48.838;9.330;2023-10-13T11:07:36;4.88;;;2.42;;
55603;SDS011;41468;48.838;9.330;2023-10-13T11:10:06;5.38;;;2.92;;
55603;SDS011;41468;48.838;9.330;2023-10-13T11:13:04;4.55;;;2.70;;
55603;SDS011;41468;48.838;9.330;2023-10-13T11:15:48;10.15;;;3.00;;
55603;SDS011;41468;48.838;9.330;2023-10-13T11:18:17;7.38;;;3.25;;
55603;SDS011;41468;48.838;9.330;2023-10-13T11:20:55;5.97;;;2.55;;
55603;SDS011;41468;48.838;9.330;2023-10-13T11:23:22;7.30;;;2.92;;
55603;SDS011;41468;48.838;9.330;2023-10-13T11:25:58;4.32;;;2.58;;
55603;SDS011;41468;48.838;9.330;2023-10-13T11:28:26;6.40;;;2.47;;
55603;SDS011;41468;48.838;9.330;2023-10-13T11:30:58;7.95;;;2.58;;
55603;SDS011;41468;48.838;9.330;2023-10-13T11:33:42;4.88;;;2.80;;
55603;SDS011;41468;48.838;9.330;2023-10-13T11:36:13;6.57;;;2.78;;
55603;SDS011;41468;48.838;9.330;2023-10-13T11:38:51;4.30;;;2.88;;
55603;SDS011;41468;48.838;9.330;2023-10-13T11:41:24;15.35;;;6.43;;
55603;SDS011;41468;48.838;9.330;2023-10-13T11:43:59;12.18;;;3.35;;
55603;SDS011;41468;48.838;9.330;2023-10-13T11:46:54;10.23;;;3.95;;
55603;SDS011;41468;48.838;9.330;2023-10-13T11:49:39;5.13;;;2.60;;
55603;SDS011;41468;48.838;9.330;2023-10-13T11:52:06;11.20;;;3.05;;
55603;SDS011;41468;48.838;9.330;2023-10-13T11:54:54;7.95;;;2.97;;
55603;SDS011;41468;48.838;9.330;2023-10-13T11:57:21;10.18;;;3.20;;
55603;SDS011;41468;48.838;9.330;2023-10-13T11:59:48;5.45;;;3.25;;
55603;SDS011;41468;48.838;9.330;2023-10-13T12:02:23;8.07;;;2.70;;
55603;SDS011;41468;48.838;9.330;2023-10-13T12:04:52;7.20;;;2.72;;
55603;SDS011;41468;48.838;9.330;2023-10-13T12:07:21;8.02;;;3.08;;
55603;SDS011;41468;48.838;9.330;2023-10-13T12:10:12;5.53;;;2.85;;
55603;SDS011;41468;48.838;9.330;2023-10-13T12:12:43;9.07;;;2.88;;
55603;SDS011;41468;48.838;9.330;2023-10-13T12:15:13;8.60;;;3.30;;
55603;SDS011;41468;48.838;9.330;2023-10-13T12:17:52;3.50;;;2.60;;
55603;SDS011;41468;48.838;9.330;2023-10-13T12:20:19;6.55;;;2.70;;
55603;SDS011;41468;48.838;9.330;2023-10-13T12:22:59;8.40;;;2.67;;
55603;SDS011;41468;48.838;9.330;2023-10-13T12:25:39;8.95;;;3.28;;
55603;SDS011;41468;48.838;9.330;2023-10-13T12:28:22;9.65;;;3.30;;
55603;SDS011;41468;48.838;9.330;2023-10-13T12:30:50;7.10;;;2.85;;
55603;SDS011;41468;48.838;9.330;2023-10-13T12:33:20;7.63;;;2.60;;
55603;SDS011;41468;48.838;9.330;2023-10-13T12:36:06;5.32;;;2.70;;
55603;SDS011;41468;48.838;9.330;2023-10-13T12:38:36;4.45;;;2.88;;
55603;SDS011;41468;48.838;9.330;2023-10-13T12:41:18;8.68;;;2.60;;
55603;SDS011;41468;48.838;9.330;2023-10-13T12:44:04;7.13;;;2.85;;
55603;SDS011;41468;48.838;9.330;2023-10-13T12:46:51;5.65;;;2.60;;
55603;SDS011;41468;48.838;9.330;2023-10-13T12:49:38;10.45;;;3.15;;
55603;SDS011;41468;48.838;9.330;2023-10-13T12:52:07;7.07;;;2.78;;
55603;SDS011;41468;48.838;9.330;2023-10-13T12:54:47;5.72;;;2.80;;
55603;SDS011;41468;48.838;9.330;2023-10-13T12:57:25;8.07;;;2.90;;
55603;SDS011;41468;48.838;9.330;2023-10-13T12:59:53;12.98;;;2.90;;
55603;SDS011;41468;48.838;9.330;2023-10-13T13:02:21;6.07;;;2.47;;
55603;SDS011;41468;48.838;9.330;2023-10-13T13:04:52;8.07;;;2.80;;
55603;SDS011;41468;48.838;9.330;2023-10-13T13:07:32;4.07;;;2.60;;
55603;SDS011;41468;48.838;9.330;2023-10-13T13:10:10;5.38;;;2.40;;
55603;SDS011;41468;48.838;9.330;2023-10-13T13:12:38;4.38;;;2.53;;
55603;SDS011;41468;48.838;9.330;2023-10-13T13:15:05;3.55;;;2.70;;
55603;SDS011;41468;48.838;9.330;2023-10-13T13:17:35;5.68;;;2.25;;
55603;SDS011;41468;48.838;9.330;2023-10-13T13:20:03;4.95;;;2.70;;
55603;SDS011;41468;48.838;9.330;2023-10-13T13:22:37;5.88;;;2.60;;
55603;SDS011;41468;48.838;9.330;2023-10-13T13:25:11;5.60;;;2.50;;
55603;SDS011;41468;48.838;9.330;2023-10-13T13:27:38;6.07;;;2.50;;
55603;SDS011;41468;48.838;9.330;2023-10-13T13:30:08;10.95;;;2.90;;
55603;SDS011;41468;48.838;9.330;2023-10-13T13:32:39;4.03;;;2.38;;
55603;SDS011;41468;48.838;9.330;2023-10-13T13:35:07;9.55;;;2.78;;
55603;SDS011;41468;48.838;9.330;2023-10-13T13:37:50;5.93;;;2.80;;
55603;SDS011;41468;48.838;9.330;2023-10-13T13:40:17;10.45;;;2.90;;
55603;SDS011;41468;48.838;9.330;2023-10-13T13:42:45;7.28;;;2.70;;
55603;SDS011;41468;48.838;9.330;2023-10-13T13:45:15;6.90;;;2.50;;
55603;SDS011;41468;48.838;9.330;2023-10-13T13:47:54;3.42;;;2.80;;
55603;SDS011;41468;48.838;9.330;2023-10-13T13:50:22;11.88;;;3.13;;
55603;SDS011;41468;48.838;9.330;2023-10-13T13:52:56;6.97;;;2.63;;
55603;SDS011;41468;48.838;9.330;2023-10-13T13:55:24;8.68;;;2.85;;
55603;SDS011;41468;48.838;9.330;2023-10-13T13:57:55;7.95;;;3.17;;
55603;SDS011;41468;48.838;9.330;2023-10-13T14:00:22;5.43;;;2.38;;
55603;SDS011;41468;48.838;9.330;2023-10-13T14:03:08;4.68;;;2.42;;
55603;SDS011;41468;48.838;9.330;2023-10-13T14:05:43;11.00;;;2.92;;
55603;SDS011;41468;48.838;9.330;2023-10-13T14:08:10;4.70;;;2.38;;
55603;SDS011;41468;48.838;9.330;2023-10-13T14:10:41;8.43;;;2.35;;
55603;SDS011;41468;48.838;9.330;2023-10-13T14:13:27;8.90;;;3.05;;
55603;SDS011;41468;48.838;9.330;2023-10-13T14:16:17;11.00;;;2.60;;
55603;SDS011;41468;48.838;9.330;2023-10-13T14:18:50;7.40;;;2.38;;
55603;SDS011;41468;48.838;9.330;2023-10-13T14:21:17;4.32;;;2.50;;
55603;SDS011;41468;48.838;9.330;2023-10-13T14:23:51;4.35;;;2.92;;
55603;SDS011;41468;48.838;9.330;2023-10-13T14:26:20;6.55;;;2.42;;
55603;SDS011;41468;48.838;9.330;2023-10-13T14:28:48;6.28;;;2.30;;
55603;SDS011;41468;48.838;9.330;2023-10-13T14:31:29;4.15;;;2.33;;
55603;SDS011;41468;48.838;9.330;2023-10-13T14:33:56;4.15;;;2.10;;
55603;SDS011;41468;48.838;9.330;2023-10-13T14:36:24;10.60;;;2.83;;
55603;SDS011;41468;48.838;9.330;2023-10-13T14:38:55;6.35;;;2.40;;
55603;SDS011;41468;48.838;9.330;2023-10-13T14:41:22;5.40;;;2.60;;
55603;SDS011;41468;48.838;9.330;2023-10-13T14:43:49;3.78;;;2.25;;
55603;SDS011;41468;48.838;9.330;2023-10-13T14:46:16;6.50;;;2.50;;
55603;SDS011;41468;48.838;9.330;2023-10-13T14:48:52;5.63;;;2.38;;
55603;SDS011;41468;48.838;9.330;2023-10-13T14:51:20;5.13;;;2.78;;
55603;SDS011;41468;48.838;9.330;2023-10-13T14:53:47;6.82;;;2.40;;
55603;SDS011;41468;48.838;9.330;2023-10-13T14:56:19;5.65;;;2.70;;
55603;SDS011;41468;48.838;9.330;2023-10-13T14:58:46;3.80;;;2.47;;
55603;SDS011;41468;48.838;9.330;2023-10-13T15:01:17;7.10;;;2.20;;
55603;SDS011;41468;48.838;9.330;2023-10-13T15:03:48;3.95;;;2.45;;
55603;SDS011;41468;48.838;9.330;2023-10-13T15:06:21;2.38;;;2.17;;
55603;SDS011;41468;48.838;9.330;2023-10-13T15:09:00;7.50;;;2.50;;
55603;SDS011;41468;48.838;9.330;2023-10-13T15:11:30;3.45;;;2.28;;
55603;SDS011;41468;48.838;9.330;2023-10-13T15:14:14;2.80;;;2.15;;
55603;SDS011;41468;48.838;9.330;2023-10-13T15:16:41;3.47;;;2.20;;
55603;SDS011;41468;48.838;9.330;2023-10-13T15:19:14;5.20;;;2.20;;
55603;SDS011;41468;48.838;9.330;2023-10-13T15:21:47;3.90;;;2.40;;
55603;SDS011;41468;48.838;9.330;2023-10-13T15:24:17;4.95;;;2.25;;
55603;SDS011;41468;48.838;9.330;2023-10-13T15:26:52;5.45;;;2.38;;
55603;SDS011;41468;48.838;9.330;2023-10-13T15:29:27;5.90;;;2.30;;
55603;SDS011;41468;48.838;9.330;2023-10-13T15:32:03;4.70;;;2.08;;
55603;SDS011;41468;48.838;9.330;2023-10-13T15:34:31;4.90;;;2.65;;
55603;SDS011;41468;48.838;9.330;2023-10-13T15:36:59;32.47;;;4.10;;
55603;SDS011;41468;48.838;9.330;2023-10-13T15:39:26;6.82;;;2.40;;
55603;SDS011;41468;48.838;9.330;2023-10-13T15:41:55;4.68;;;2.38;;